Time;durP1;ratioP1;P1;durP2;ratioP2;P2;SDS_P1;SDS_P2;PMS_P1;PMS_P2;Temp;Humidity;BMP_temperature;BMP_pressure;BME280_temperature;BME280_humidity;BME280_pressure;Samples;Min_cycle;Max_cycle;Signal;HPM_P1;HPM_P2
2022/11/02 00:00:41;;;;;;;;;;;10.30;57.00;;;;;;5117802;27;20019;-51
2022/11/02 00:03:07;;;;;;;14.43;7.82;;;10.20;56.90;;;;;;5116929;27;19914;-53
2022/11/02 00:05:32;;;;;;;16.73;9.73;;;10.20;57.00;;;;;;5114377;27;20031;-54
2022/11/02 00:07:58;;;;;;;15.63;11.15;;;10.20;57.10;;;;;;5121237;27;20015;-54
2022/11/02 00:10:24;;;;;;;16.88;12.25;;;10.20;57.00;;;;;;5125704;27;20015;-55
2022/11/02 00:12:51;;;;;;;20.55;13.55;;;10.10;56.90;;;;;;5125068;27;20102;-54
2022/11/02 00:15:17;;;;;;;21.88;14.98;;;10.10;56.80;;;;;;5115737;27;20048;-53
2022/11/02 00:17:48;;;;;;;23.70;16.80;;;10.00;56.70;;;;;;5117078;28;20020;-55
2022/11/02 00:20:17;;;;;;;21.75;15.52;;;10.00;56.80;;;;;;5116753;27;20549;-54
2022/11/02 00:22:44;;;;;;;24.13;16.27;;;9.90;56.70;;;;;;5120889;27;20042;-55
2022/11/02 00:25:13;;;;;;;22.13;15.75;;;9.90;56.90;;;;;;5129468;27;20053;-52
2022/11/02 00:27:41;;;;;;;22.15;16.13;;;9.80;57.00;;;;;;5118094;27;20015;-52
2022/11/02 00:30:07;;;;;;;19.52;15.15;;;9.80;57.10;;;;;;5122292;27;20042;-53
2022/11/02 00:32:33;;;;;;;21.35;14.85;;;9.80;57.30;;;;;;5131599;27;20160;-54
2022/11/02 00:34:59;;;;;;;20.13;15.27;;;9.80;57.40;;;;;;5128019;27;20059;-52
2022/11/02 00:37:24;;;;;;;19.88;14.10;;;9.80;57.50;;;;;;5131908;27;20427;-53
2022/11/02 00:39:50;;;;;;;18.42;13.45;;;9.80;57.40;;;;;;5118779;27;20045;-55
2022/11/02 00:42:16;;;;;;;19.23;13.02;;;9.80;57.40;;;;;;5116915;27;20030;-53
2022/11/02 00:44:41;;;;;;;15.45;11.45;;;9.90;57.50;;;;;;5116693;27;20034;-55
2022/11/02 00:47:07;;;;;;;14.70;10.60;;;9.90;57.40;;;;;;5117130;27;20028;-53
2022/11/02 00:49:33;;;;;;;14.25;9.55;;;10.00;57.50;;;;;;5118093;27;20089;-56
2022/11/02 00:51:58;;;;;;;14.18;9.93;;;10.00;57.30;;;;;;5117038;27;20130;-53
2022/11/02 00:54:24;;;;;;;13.55;8.68;;;10.10;57.20;;;;;;5116634;27;20474;-51
2022/11/02 00:56:50;;;;;;;11.60;7.95;;;10.00;56.90;;;;;;5116938;28;20060;-54
2022/11/02 00:59:15;;;;;;;11.82;8.23;;;10.10;56.90;;;;;;5117697;27;20482;-55
2022/11/02 01:01:46;;;;;;;13.05;8.75;;;10.00;56.70;;;;;;5116821;27;20068;-55
2022/11/02 01:04:13;;;;;;;15.55;9.50;;;10.00;56.70;;;;;;5114889;27;20023;-52
2022/11/02 01:06:39;;;;;;;13.52;8.85;;;10.00;56.60;;;;;;5116165;28;20031;-53
2022/11/02 01:09:05;;;;;;;13.45;8.40;;;10.00;56.70;;;;;;5117914;27;20016;-53
2022/11/02 01:11:30;;;;;;;12.32;8.02;;;10.00;56.70;;;;;;5117286;27;20028;-53
2022/11/02 01:13:56;;;;;;;11.10;7.75;;;9.90;56.70;;;;;;5119110;27;20156;-54
2022/11/02 01:16:22;;;;;;;10.90;7.03;;;9.90;56.70;;;;;;5128334;27;20036;-55
2022/11/02 01:18:54;;;;;;;8.70;6.75;;;9.90;56.70;;;;;;5121325;27;20027;-52
2022/11/02 01:21:21;;;;;;;10.60;7.10;;;9.90;56.70;;;;;;5129768;27;20116;-54
2022/11/02 01:23:47;;;;;;;10.68;6.90;;;9.90;56.70;;;;;;5123272;27;20057;-52
2022/11/02 01:26:13;;;;;;;10.05;6.78;;;9.90;56.80;;;;;;5135702;27;20031;-52
2022/11/02 01:28:39;;;;;;;8.55;5.72;;;9.90;56.90;;;;;;5121845;27;20034;-52
2022/11/02 01:31:06;;;;;;;8.80;6.05;;;9.90;56.90;;;;;;5136203;27;20378;-55
2022/11/02 01:33:32;;;;;;;8.50;5.90;;;10.00;57.10;;;;;;5121421;27;20019;-52
2022/11/02 01:35:58;;;;;;;9.63;6.80;;;10.00;57.10;;;;;;5135624;27;20034;-51
2022/11/02 01:38:24;;;;;;;9.30;6.25;;;10.00;57.20;;;;;;5125835;27;20027;-53
2022/11/02 01:40:50;;;;;;;7.22;5.85;;;10.10;57.40;;;;;;5115745;28;20027;-53
2022/11/02 01:43:27;;;;;;;8.68;6.32;;;10.10;57.40;;;;;;5120541;27;20037;-56
2022/11/02 01:46:27;;;;;;;9.45;5.78;;;10.10;57.60;;;;;;5117590;28;20035;-52
2022/11/02 01:48:56;;;;;;;8.48;5.88;;;10.20;57.70;;;;;;5100338;27;20074;-53
2022/11/02 01:51:30;;;;;;;8.10;6.10;;;10.20;57.70;;;;;;5117730;27;20219;-55
2022/11/02 01:54:03;;;;;;;8.93;6.00;;;10.20;57.90;;;;;;5115644;28;20028;-55
2022/11/02 01:56:31;;;;;;;8.65;5.90;;;10.20;58.00;;;;;;5114711;28;20055;-53
2022/11/02 01:59:05;;;;;;;7.70;5.70;;;10.20;58.00;;;;;;5114764;28;20086;-52
2022/11/02 02:01:31;;;;;;;8.88;6.22;;;10.10;57.90;;;;;;5115730;28;20088;-54
2022/11/02 02:03:58;;;;;;;8.98;6.78;;;10.20;58.00;;;;;;5117686;28;20114;-52
2022/11/02 02:06:27;;;;;;;9.45;6.20;;;10.20;57.90;;;;;;5136207;27;20526;-53
2022/11/02 02:08:54;;;;;;;9.95;6.05;;;10.20;57.90;;;;;;5122301;27;20523;-55
2022/11/02 02:11:29;;;;;;;10.50;7.78;;;10.20;58.00;;;;;;5114268;28;20027;-54
2022/11/02 02:14:05;;;;;;;10.63;6.32;;;10.20;57.90;;;;;;5119516;28;20026;-53
2022/11/02 02:17:04;;;;;;;9.88;7.28;;;10.20;57.90;;;;;;5135573;27;20460;-52
2022/11/02 02:20:09;;;;;;;10.45;7.85;;;10.30;57.80;;;;;;5116527;27;20024;-53
2022/11/02 02:23:03;;;;;;;9.70;7.15;;;10.30;57.50;;;;;;5106302;28;20041;-55
2022/11/02 02:26:30;;;;;;;11.63;7.07;;;10.30;57.40;;;;;;5115655;28;20018;-53
2022/11/02 02:29:18;;;;;;;8.63;6.03;;;10.30;57.30;;;;;;5055100;28;20056;-53
2022/11/02 02:32:12;;;;;;;8.40;6.10;;;10.30;57.30;;;;;;5068575;28;20056;-51
2022/11/02 02:34:43;;;;;;;9.05;6.55;;;10.20;57.10;;;;;;5125702;27;20070;-52
2022/11/02 02:37:14;;;;;;;;;;;10.30;57.10;;;;;;5139921;27;20015;-54
2022/11/02 02:39:49;;;;;;;10.20;5.97;;;10.30;57.00;;;;;;5136635;27;19919;-52
2022/11/02 02:42:43;;;;;;;7.38;5.70;;;10.30;57.10;;;;;;5129164;27;20066;-52
2022/11/02 02:45:14;;;;;;;9.02;5.97;;;10.30;57.00;;;;;;5119498;27;20547;-53
2022/11/02 02:47:46;;;;;;;;;;;10.30;57.00;;;;;;5136721;27;20023;-53
2022/11/02 02:50:18;;;;;;;;;;;10.40;56.80;;;;;;5118915;28;19992;-54
2022/11/02 02:52:48;;;;;;;6.13;5.10;;;10.30;56.90;;;;;;5126765;27;19907;-53
2022/11/02 02:55:19;;;;;;;8.05;5.75;;;10.40;57.10;;;;;;5128234;27;20054;-53
2022/11/02 02:57:45;;;;;;;7.07;4.63;;;10.50;57.10;;;;;;5118106;27;20042;-51
2022/11/02 03:00:13;;;;;;;8.30;5.50;;;10.50;57.00;;;;;;5118743;28;20023;-55
2022/11/02 03:02:39;;;;;;;6.07;4.90;;;10.50;57.60;;;;;;5130138;27;20070;-52
2022/11/02 03:05:25;;;;;;;7.22;5.43;;;10.50;56.90;;;;;;5138411;27;20056;-54
2022/11/02 03:07:50;;;;;;;7.15;4.88;;;10.60;57.00;;;;;;5135475;27;20015;-53
2022/11/02 03:10:30;;;;;;;7.57;5.28;;;10.60;57.00;;;;;;5127758;27;20015;-53
2022/11/02 03:13:26;;;;;;;8.55;5.43;;;10.60;56.90;;;;;;5128767;27;20032;-51
2022/11/02 03:15:59;;;;;;;7.93;5.97;;;10.70;57.00;;;;;;5105153;28;20058;-51
2022/11/02 03:18:34;;;;;;;11.10;7.65;;;10.70;57.00;;;;;;5119088;27;20444;-54
2022/11/02 03:21:17;;;;;;;14.57;8.98;;;10.70;56.90;;;;;;5132323;27;20034;-54
2022/11/02 03:23:54;;;;;;;18.20;10.02;;;10.70;56.70;;;;;;5138782;27;20050;-54
2022/11/02 03:26:29;;;;;;;10.75;8.23;;;10.60;56.60;;;;;;5138793;27;20027;-53
2022/11/02 03:29:10;;;;;;;13.27;8.80;;;10.50;56.50;;;;;;5116311;27;20023;-53
2022/11/02 03:31:41;;;;;;;15.10;8.85;;;10.50;56.60;;;;;;5123178;27;20030;-53
2022/11/02 03:34:37;;;;;;;11.60;8.07;;;10.40;56.70;;;;;;5138370;27;20091;-55
2022/11/02 03:37:26;;;;;;;12.90;7.95;;;10.30;57.40;;;;;;5112395;27;20146;-54
2022/11/02 03:39:57;;;;;;;9.93;6.57;;;10.30;57.00;;;;;;5133205;27;20818;-53
2022/11/02 03:42:26;;;;;;;9.15;6.85;;;10.30;57.20;;;;;;5129216;27;20083;-53
2022/11/02 03:45:05;;;;;;;10.38;6.28;;;10.30;57.40;;;;;;5132292;27;20031;-54
2022/11/02 03:47:34;;;;;;;7.82;5.90;;;10.30;57.60;;;;;;5137054;27;20490;-53
2022/11/02 03:50:03;;;;;;;9.10;6.13;;;10.30;57.60;;;;;;5117062;27;20474;-54
2022/11/02 03:52:31;;;;;;;8.50;6.28;;;10.40;57.70;;;;;;5131355;27;20538;-52
2022/11/02 03:55:09;;;;;;;8.20;6.15;;;10.40;57.60;;;;;;5137229;27;20110;-55
2022/11/02 03:57:55;;;;;;;9.45;6.93;;;10.40;57.70;;;;;;5137352;27;20060;-54
2022/11/02 04:00:23;;;;;;;11.52;8.18;;;10.40;57.90;;;;;;5115834;27;20066;-54
2022/11/02 04:02:52;;;;;;;12.20;8.73;;;10.40;58.00;;;;;;5136965;27;20026;-53
2022/11/02 04:05:19;;;;;;;12.27;8.25;;;10.40;58.20;;;;;;5136881;27;20015;-54
2022/11/02 04:10:33;;;;;;;8.70;7.00;;;10.20;58.50;;;;;;5121067;27;20046;-53
2022/11/02 04:15:43;;;;;;;8.65;6.50;;;10.10;58.80;;;;;;5117486;28;20058;-53
2022/11/02 04:20:53;;;;;;;5.90;4.80;;;10.00;59.20;;;;;;5111058;27;20554;-54
2022/11/02 04:26:04;;;;;;;6.20;4.22;;;10.00;59.60;;;;;;5117474;28;20561;-54
2022/11/02 04:28:30;;;;;;;6.40;3.90;;;10.00;59.80;;;;;;5115861;27;20015;-52
2022/11/02 04:30:59;;;;;;;5.80;4.25;;;10.00;59.80;;;;;;5112004;28;20035;-50
2022/11/02 04:33:31;;;;;;;5.72;4.20;;;10.00;59.80;;;;;;5116920;27;20024;-54
2022/11/02 04:36:05;;;;;;;5.15;3.58;;;10.00;59.90;;;;;;5117001;27;20398;-53
2022/11/02 04:38:40;;;;;;;6.28;3.90;;;10.10;59.90;;;;;;5112416;27;20034;-52
2022/11/02 04:43:55;;;;;;;3.70;3.22;;;10.10;59.90;;;;;;5125739;27;20046;-54
2022/11/02 04:46:23;;;;;;;4.05;3.25;;;10.10;59.90;;;;;;5116301;27;20024;-53
2022/11/02 04:48:49;;;;;;;4.05;3.22;;;10.10;60.00;;;;;;5115128;28;20074;-52
2022/11/02 04:51:16;;;;;;;5.35;3.67;;;10.10;60.00;;;;;;5116029;28;20024;-54
2022/11/02 04:53:41;;;;;;;4.50;3.22;;;10.20;60.00;;;;;;5116409;27;20099;-53
2022/11/02 04:56:07;;;;;;;6.15;3.38;;;10.20;60.00;;;;;;5117308;27;20047;-54
2022/11/02 04:58:34;;;;;;;5.93;3.28;;;10.30;60.10;;;;;;5115285;27;20102;-55
2022/11/02 05:01:07;;;;;;;7.07;3.80;;;10.30;60.00;;;;;;5117118;27;20019;-54
2022/11/02 05:03:33;;;;;;;3.58;3.03;;;10.30;60.10;;;;;;5116845;28;20098;-53
2022/11/02 05:05:58;;;;;;;5.13;3.35;;;10.40;60.20;;;;;;5115791;27;20023;-52
2022/11/02 05:08:24;;;;;;;5.40;3.38;;;10.40;60.10;;;;;;5115099;28;20173;-53
2022/11/02 05:10:56;;;;;;;4.55;3.25;;;10.40;60.10;;;;;;5116450;27;20348;-52
2022/11/02 05:13:23;;;;;;;5.57;3.72;;;10.40;59.90;;;;;;5116410;27;20471;-55
2022/11/02 05:15:49;;;;;;;4.68;3.50;;;10.50;59.90;;;;;;5115532;28;20040;-53
2022/11/02 05:18:15;;;;;;;4.93;3.38;;;10.50;59.90;;;;;;5114051;28;20028;-53
2022/11/02 05:20:41;;;;;;;3.42;2.95;;;10.50;59.80;;;;;;5121414;27;20027;-52
2022/11/02 05:23:06;;;;;;;4.78;3.33;;;10.60;59.90;;;;;;5135457;27;20023;-54
2022/11/02 05:25:32;;;;;;;7.35;3.95;;;10.60;59.90;;;;;;5135442;27;20035;-53
2022/11/02 05:27:58;;;;;;;6.95;3.88;;;10.70;60.00;;;;;;5116613;27;20131;-52
2022/11/02 05:30:24;;;;;;;5.03;3.72;;;10.70;59.90;;;;;;5114847;28;20076;-53
2022/11/02 05:32:49;;;;;;;4.60;3.38;;;10.70;59.90;;;;;;5115156;28;20042;-54
2022/11/02 05:35:15;;;;;;;4.95;3.65;;;10.70;60.00;;;;;;5115141;28;20032;-54
2022/11/02 05:37:41;;;;;;;5.57;4.15;;;10.80;60.10;;;;;;5114671;28;20031;-53
2022/11/02 05:40:07;;;;;;;6.45;3.97;;;10.80;60.00;;;;;;5115752;27;20019;-54
2022/11/02 05:42:33;;;;;;;5.60;4.00;;;10.90;59.90;;;;;;5115744;28;20023;-52
2022/11/02 05:44:59;;;;;;;5.40;3.38;;;10.90;59.70;;;;;;5116510;27;20027;-55
2022/11/02 05:47:25;;;;;;;6.38;4.20;;;11.00;59.60;;;;;;5112270;28;20036;-52
2022/11/02 05:49:50;;;;;;;5.70;3.97;;;11.20;59.40;;;;;;5115725;27;20106;-52
2022/11/02 05:52:16;;;;;;;5.05;3.90;;;11.20;59.30;;;;;;5115453;28;20028;-50
2022/11/02 05:54:41;;;;;;;6.35;4.18;;;11.30;59.30;;;;;;5113588;28;20096;-54
2022/11/02 05:57:07;;;;;;;6.20;4.10;;;11.40;59.30;;;;;;5114140;28;20063;-53
2022/11/02 05:59:33;;;;;;;6.63;4.25;;;11.50;59.10;;;;;;5113946;28;20043;-54
2022/11/02 06:01:58;;;;;;;5.43;4.00;;;11.50;58.90;;;;;;5113655;27;20038;-53
2022/11/02 06:04:24;;;;;;;6.65;4.10;;;11.60;58.90;;;;;;5103394;28;20031;-54
2022/11/02 06:06:50;;;;;;;7.10;4.03;;;11.70;58.90;;;;;;5118867;28;20092;-52
2022/11/02 06:09:15;;;;;;;4.93;3.70;;;11.80;58.70;;;;;;5114155;28;20019;-53
2022/11/02 06:11:41;;;;;;;4.90;3.85;;;11.90;58.60;;;;;;5119812;28;20020;-52
2022/11/02 06:14:06;;;;;;;6.15;4.50;;;12.00;58.50;;;;;;5120825;28;20120;-55
2022/11/02 06:16:32;;;;;;;5.82;3.65;;;12.00;58.30;;;;;;5132078;27;20072;-54
2022/11/02 06:18:58;;;;;;;5.82;4.00;;;12.10;58.20;;;;;;5117601;28;20046;-52
2022/11/02 06:21:23;;;;;;;6.43;4.00;;;12.20;58.20;;;;;;5127806;28;20023;-54
2022/11/02 06:23:49;;;;;;;4.85;3.53;;;12.30;58.10;;;;;;5130228;27;20031;-53
2022/11/02 06:26:15;;;;;;;5.72;4.10;;;12.40;58.10;;;;;;5108879;28;20027;-55
2022/11/02 06:28:41;;;;;;;7.72;5.00;;;12.50;58.20;;;;;;5114381;28;20023;-55
2022/11/02 06:31:07;;;;;;;7.00;4.53;;;12.60;57.70;;;;;;5117952;28;20019;-54
2022/11/02 06:33:32;;;;;;;7.15;4.65;;;12.70;57.60;;;;;;5120565;28;20371;-54
2022/11/02 06:35:58;;;;;;;8.90;4.35;;;12.80;57.40;;;;;;5118273;28;20027;-52
2022/11/02 06:38:24;;;;;;;5.20;4.05;;;12.90;57.30;;;;;;5118684;28;20084;-54
2022/11/02 06:40:54;;;;;;;5.82;4.63;;;13.00;57.30;;;;;;5124596;27;20027;-53
2022/11/02 06:43:20;;;;;;;6.53;4.80;;;13.00;57.10;;;;;;5115784;28;20516;-52
2022/11/02 06:45:46;;;;;;;6.38;4.53;;;13.10;57.10;;;;;;5115018;28;20023;-58
2022/11/02 06:48:11;;;;;;;7.30;5.25;;;13.10;57.10;;;;;;5116205;28;20027;-54
2022/11/02 06:50:37;;;;;;;8.73;5.80;;;13.10;57.00;;;;;;5105555;28;20027;-53
2022/11/02 06:53:02;;;;;;;7.07;4.60;;;13.10;56.90;;;;;;5100326;28;20176;-57
2022/11/02 06:55:28;;;;;;;7.50;5.00;;;13.10;56.90;;;;;;5103617;28;20038;-57
2022/11/02 06:57:54;;;;;;;8.02;5.10;;;13.10;56.90;;;;;;5108717;28;20486;-53
2022/11/02 07:00:19;;;;;;;7.05;4.78;;;13.10;56.80;;;;;;5107423;28;20051;-55
2022/11/02 07:02:46;;;;;;;6.82;4.85;;;13.10;56.80;;;;;;5108282;28;20028;-55
2022/11/02 07:05:12;;;;;;;7.18;4.72;;;13.10;56.90;;;;;;5102242;28;20457;-53
2022/11/02 07:07:38;;;;;;;6.85;4.80;;;13.00;56.80;;;;;;5104980;28;20450;-53
2022/11/02 07:10:04;;;;;;;8.38;4.75;;;13.00;56.90;;;;;;5099776;28;20035;-57
2022/11/02 07:12:31;;;;;;;6.28;4.57;;;13.00;57.10;;;;;;5104177;27;20027;-54
2022/11/02 07:14:57;;;;;;;6.75;4.18;;;12.90;57.10;;;;;;5112984;27;20049;-53
2022/11/02 07:17:22;;;;;;;5.88;4.75;;;12.90;57.20;;;;;;5108218;27;20042;-51
2022/11/02 07:19:48;;;;;;;6.00;4.55;;;12.90;57.30;;;;;;5113757;27;20060;-52
2022/11/02 07:22:14;;;;;;;6.53;4.30;;;12.90;57.40;;;;;;5114295;27;20036;-55
2022/11/02 07:24:39;;;;;;;6.25;3.92;;;12.90;57.40;;;;;;5112999;27;20043;-52
2022/11/02 07:27:05;;;;;;;6.75;4.15;;;13.00;57.50;;;;;;5104915;27;20517;-55
2022/11/02 07:29:31;;;;;;;7.43;4.53;;;13.00;57.50;;;;;;5111901;27;20322;-56
2022/11/02 07:31:56;;;;;;;6.35;4.35;;;13.00;57.60;;;;;;5100285;27;20020;-52
2022/11/02 07:34:22;;;;;;;4.82;3.60;;;13.00;57.60;;;;;;5095975;27;20050;-56
2022/11/02 07:36:48;;;;;;;4.82;3.88;;;13.10;57.80;;;;;;5104591;27;20607;-53
2022/11/02 07:39:13;;;;;;;6.65;4.50;;;13.10;57.90;;;;;;5094430;27;20035;-56
2022/11/02 07:41:39;;;;;;;6.63;4.60;;;13.10;58.00;;;;;;5105423;27;20601;-54
2022/11/02 07:44:07;;;;;;;7.05;4.78;;;13.20;58.10;;;;;;5096874;27;20027;-56
2022/11/02 07:46:33;;;;;;;6.53;4.28;;;13.20;58.20;;;;;;5095410;27;20039;-57
2022/11/02 07:48:58;;;;;;;6.70;4.50;;;13.20;58.30;;;;;;5094377;27;20024;-53
2022/11/02 07:51:24;;;;;;;7.05;4.30;;;13.30;58.30;;;;;;5099350;27;20060;-53
2022/11/02 07:53:49;;;;;;;7.22;4.82;;;13.30;58.60;;;;;;5100426;27;20118;-53
2022/11/02 07:56:15;;;;;;;5.40;3.83;;;13.30;58.50;;;;;;5115335;27;20083;-57
2022/11/02 07:58:41;;;;;;;5.13;3.72;;;13.30;58.50;;;;;;5101362;27;20023;-55
2022/11/02 08:01:06;;;;;;;7.22;4.68;;;13.40;58.60;;;;;;5099274;27;20024;-54
2022/11/02 08:03:32;;;;;;;6.90;4.57;;;13.40;58.50;;;;;;5100258;27;20035;-53
2022/11/02 08:06:01;;;;;;;7.78;4.97;;;13.40;58.30;;;;;;5087045;27;20039;-57
2022/11/02 08:08:27;;;;;;;7.45;5.20;;;13.30;58.20;;;;;;5090236;27;20139;-56
2022/11/02 08:10:53;;;;;;;6.10;4.60;;;13.30;58.30;;;;;;5095791;28;20489;-55
2022/11/02 08:13:21;;;;;;;6.75;4.07;;;13.20;58.30;;;;;;5095431;27;20024;-55
2022/11/02 08:15:52;;;;;;;5.38;3.80;;;13.20;58.60;;;;;;5095866;27;20111;-55
2022/11/02 08:18:19;;;;;;;;;;;13.10;58.70;;;;;;5092375;27;20089;-54
2022/11/02 08:20:46;;;;;;;5.70;4.60;;;13.10;58.70;;;;;;5097284;27;19919;-56
2022/11/02 08:23:16;;;;;;;6.68;4.53;;;13.00;58.70;;;;;;5093718;27;20255;-54
2022/11/02 08:25:44;;;;;;;5.82;4.40;;;13.00;58.70;;;;;;5093886;27;20077;-54
2022/11/02 08:28:19;;;;;;;6.30;4.43;;;12.90;58.70;;;;;;5096697;27;20027;-58
2022/11/02 08:30:45;;;;;;;8.45;5.28;;;12.90;58.80;;;;;;5100904;27;20031;-53
2022/11/02 08:33:14;;;;;;;8.15;6.57;;;12.80;59.00;;;;;;5091779;27;20061;-57
2022/11/02 08:35:42;;;;;;;8.25;5.68;;;12.70;59.00;;;;;;5093465;27;21121;-55
2022/11/02 08:38:08;;;;;;;7.95;5.20;;;12.70;59.10;;;;;;5082023;27;20117;-56
2022/11/02 08:40:34;;;;;;;9.05;6.10;;;12.70;59.20;;;;;;5085450;27;20059;-55
2022/11/02 08:43:20;;;;;;;6.55;4.97;;;12.60;59.20;;;;;;5087401;27;20051;-56
2022/11/02 08:45:46;;;;;;;6.35;4.90;;;12.60;59.40;;;;;;5082583;27;20044;-58
2022/11/02 08:48:12;;;;;;;7.22;5.15;;;12.60;59.50;;;;;;5093535;27;20035;-56
2022/11/02 08:50:38;;;;;;;6.90;4.95;;;12.60;59.50;;;;;;5090860;27;21126;-57
2022/11/02 08:53:05;;;;;;;6.28;4.63;;;12.60;59.70;;;;;;5083241;27;20118;-58
2022/11/02 08:55:31;;;;;;;7.50;5.65;;;12.60;59.70;;;;;;5087264;27;20027;-58
2022/11/02 08:57:58;;;;;;;7.10;5.20;;;12.60;59.90;;;;;;5082101;28;20116;-57
2022/11/02 09:00:29;;;;;;;7.78;4.93;;;12.60;60.00;;;;;;5084224;27;20052;-56
2022/11/02 09:03:05;;;;;;;7.10;4.82;;;12.60;60.10;;;;;;5085090;28;20576;-57
2022/11/02 09:05:33;;;;;;;7.25;4.97;;;12.60;60.30;;;;;;5089541;27;20057;-56
2022/11/02 09:08:01;;;;;;;8.13;5.32;;;12.60;60.30;;;;;;5093685;27;20035;-58
2022/11/02 09:10:28;;;;;;;7.22;5.07;;;12.60;60.30;;;;;;5094936;27;20077;-58
2022/11/02 09:12:54;;;;;;;6.07;4.75;;;12.50;60.30;;;;;;5091907;27;20032;-58
2022/11/02 09:15:20;;;;;;;7.53;5.20;;;12.50;60.50;;;;;;5080905;27;20055;-51
2022/11/02 09:17:49;;;;;;;7.10;5.00;;;12.50;60.40;;;;;;5076669;27;20040;-55
2022/11/02 09:20:16;;;;;;;9.75;5.80;;;12.50;60.60;;;;;;5081441;27;20023;-54
2022/11/02 09:22:43;;;;;;;7.47;5.25;;;12.50;60.60;;;;;;5086117;28;20423;-58
2022/11/02 09:25:09;;;;;;;6.95;4.93;;;12.50;60.80;;;;;;5083881;27;20062;-59
2022/11/02 09:27:35;;;;;;;7.00;4.68;;;12.40;60.80;;;;;;5085395;27;20047;-57
2022/11/02 09:30:02;;;;;;;7.70;4.63;;;12.40;60.90;;;;;;5090318;27;20143;-58
2022/11/02 09:32:32;;;;;;;8.35;5.03;;;12.50;61.00;;;;;;5076347;28;20107;-56
2022/11/02 09:35:08;;;;;;;9.00;6.20;;;12.50;61.00;;;;;;5081646;28;20142;-58
2022/11/02 09:37:34;;;;;;;9.63;5.50;;;12.50;61.00;;;;;;5086360;27;20579;-57
2022/11/02 09:40:00;;;;;;;9.40;6.15;;;12.40;60.90;;;;;;5084044;27;20032;-58
2022/11/02 09:42:41;;;;;;;9.35;6.13;;;12.40;61.00;;;;;;5086878;28;20024;-58
2022/11/02 09:45:13;;;;;;;7.47;5.07;;;12.40;61.10;;;;;;5085105;27;20030;-56
2022/11/02 09:47:47;;;;;;;7.68;5.82;;;12.30;61.10;;;;;;5089364;27;20035;-57
2022/11/02 09:50:21;;;;;;;8.00;5.82;;;12.30;61.20;;;;;;5089409;28;20050;-57
2022/11/02 09:52:55;;;;;;;7.38;5.43;;;12.30;61.30;;;;;;5087369;27;20529;-58
2022/11/02 09:55:26;;;;;;;9.55;5.43;;;12.30;61.30;;;;;;5082584;28;20490;-58
2022/11/02 09:57:59;;;;;;;7.65;4.78;;;12.30;61.40;;;;;;5086385;28;20031;-58
2022/11/02 10:00:29;;;;;;;9.05;6.07;;;12.30;61.50;;;;;;5076294;28;20035;-58
2022/11/02 10:03:16;;;;;;;7.88;6.00;;;12.30;61.40;;;;;;5078696;28;20651;-55
2022/11/02 12:13:35;;;;;;;5.55;3.65;;;11.90;61.30;;;;;;5075502;27;20489;-57
2022/11/02 12:16:10;;;;;;;6.72;4.47;;;11.90;61.10;;;;;;5067306;28;20064;-58
2022/11/02 12:19:05;;;;;;;6.85;4.82;;;11.90;61.70;;;;;;5070161;28;20741;-57
2022/11/02 12:21:59;;;;;;;7.90;4.75;;;12.00;62.50;;;;;;5065770;28;20085;-58
2022/11/02 12:24:46;;;;;;;9.13;4.82;;;12.10;62.90;;;;;;5075355;28;20028;-58
2022/11/02 12:27:28;;;;;;;6.53;4.78;;;12.20;63.10;;;;;;5069972;28;20037;-56
2022/11/02 12:30:00;;;;;;;;;;;12.30;63.30;;;;;;5058993;28;20040;-58
2022/11/02 12:32:35;;;;;;;6.93;4.53;;;12.30;63.40;;;;;;5056137;28;20005;-57
2022/11/02 12:35:10;;;;;;;6.55;4.90;;;12.40;63.40;;;;;;5062861;28;20086;-58
2022/11/02 12:37:54;;;;;;;7.38;4.53;;;12.40;63.40;;;;;;5061907;28;20031;-58
2022/11/02 12:40:35;;;;;;;6.72;5.03;;;12.50;63.40;;;;;;5059237;28;20431;-58
2022/11/02 12:43:34;;;;;;;7.32;4.80;;;12.60;63.50;;;;;;5055512;28;20067;-56
2022/11/02 12:46:21;;;;;;;7.05;4.72;;;12.70;63.50;;;;;;5057794;28;20063;-57
2022/11/02 12:49:24;;;;;;;6.30;4.45;;;12.70;63.40;;;;;;5061963;28;20039;-57
2022/11/02 12:52:03;;;;;;;7.43;5.32;;;12.80;63.30;;;;;;5054818;28;20032;-58
2022/11/02 12:54:45;;;;;;;6.07;4.10;;;12.80;63.20;;;;;;5050093;28;20024;-57
2022/11/02 12:57:15;;;;;;;6.28;4.53;;;12.80;63.20;;;;;;5056562;28;20036;-57
2022/11/02 12:59:43;;;;;;;7.30;5.18;;;12.90;63.10;;;;;;5048505;28;20652;-58
2022/11/02 13:02:28;;;;;;;8.70;5.28;;;12.90;63.10;;;;;;5058561;28;20021;-57
2022/11/02 13:05:08;;;;;;;6.30;4.90;;;13.00;63.00;;;;;;5046516;28;20056;-57
2022/11/02 13:07:43;;;;;;;7.03;5.22;;;13.00;63.20;;;;;;5056464;28;20391;-59
2022/11/02 13:10:27;;;;;;;7.32;5.25;;;13.00;63.30;;;;;;5058504;28;20100;-58
2022/11/02 13:12:57;;;;;;;7.85;5.63;;;13.10;63.50;;;;;;5060768;28;20058;-59
2022/11/02 13:15:25;;;;;;;8.52;5.47;;;13.10;63.80;;;;;;5059429;28;20482;-59
2022/11/02 13:17:57;;;;;;;6.97;5.32;;;13.10;64.00;;;;;;5055626;28;20094;-57
2022/11/02 13:20:39;;;;;;;8.30;6.10;;;13.10;64.10;;;;;;5055534;28;20989;-58
2022/11/02 13:23:18;;;;;;;8.65;5.88;;;13.20;64.20;;;;;;5044768;28;21608;-58
2022/11/02 13:25:50;;;;;;;8.68;6.30;;;13.20;64.40;;;;;;5041885;28;20033;-56
2022/11/02 13:28:51;;;;;;;9.32;5.90;;;13.20;64.20;;;;;;5049656;28;20170;-58
2022/11/02 13:31:32;;;;;;;9.82;6.28;;;13.20;64.10;;;;;;5020928;28;20097;-58
2022/11/02 13:34:02;;;;;;;7.73;5.53;;;13.20;64.10;;;;;;5041282;28;20583;-58
2022/11/02 13:36:28;;;;;;;9.60;6.40;;;13.20;64.00;;;;;;5039225;28;20029;-59
2022/11/02 13:39:15;;;;;;;13.10;7.40;;;13.20;64.00;;;;;;5042503;28;20066;-57
2022/11/02 13:42:04;;;;;;;10.13;6.57;;;13.20;63.90;;;;;;5042335;28;20165;-58
2022/11/02 13:45:06;;;;;;;10.88;6.60;;;13.20;63.90;;;;;;5044519;28;20044;-58
2022/11/02 13:47:56;;;;;;;10.20;6.93;;;13.20;63.80;;;;;;5043968;28;20041;-56
2022/11/02 13:50:25;;;;;;;9.90;6.05;;;13.10;63.90;;;;;;5051174;28;20036;-58
2022/11/02 13:53:04;;;;;;;8.65;5.97;;;13.10;64.00;;;;;;5044692;28;20032;-58
2022/11/02 13:55:56;;;;;;;10.93;7.03;;;13.10;64.10;;;;;;5050089;28;20032;-57
2022/11/02 13:58:31;;;;;;;9.98;6.38;;;13.10;64.30;;;;;;5053884;28;20511;-58
2022/11/02 14:01:05;;;;;;;10.70;6.35;;;13.10;64.40;;;;;;5047696;28;20047;-56
2022/11/02 14:03:51;;;;;;;10.25;6.45;;;13.10;64.60;;;;;;5046590;28;20021;-58
2022/11/02 14:06:19;;;;;;;11.02;6.75;;;13.00;64.60;;;;;;5050021;28;20050;-57
2022/11/02 14:08:53;;;;;;;8.82;6.18;;;13.00;64.70;;;;;;5044605;28;20503;-57
2022/11/02 14:11:18;;;;;;;10.10;6.97;;;13.00;64.70;;;;;;5046716;28;20060;-57
2022/11/02 14:13:50;;;;;;;9.50;6.90;;;13.00;64.80;;;;;;5052052;28;20028;-57
2022/11/02 14:16:41;;;;;;;7.75;6.22;;;13.00;64.90;;;;;;5044878;28;20133;-56
2022/11/02 14:19:21;;;;;;;8.45;5.90;;;12.90;64.90;;;;;;5051941;28;20099;-56
2022/11/02 14:21:51;;;;;;;9.27;6.07;;;12.90;64.80;;;;;;5050040;28;20028;-58
2022/11/02 14:24:32;;;;;;;8.55;6.00;;;12.90;64.90;;;;;;5046297;28;20033;-57
2022/11/02 14:27:20;;;;;;;11.43;7.35;;;12.90;64.90;;;;;;5051821;28;20086;-57
2022/11/02 14:29:45;;;;;;;9.32;6.80;;;12.80;64.80;;;;;;5038137;28;20040;-57
2022/11/02 14:32:16;;;;;;;10.30;6.70;;;12.80;64.80;;;;;;5046534;28;20040;-57
2022/11/02 14:35:11;;;;;;;9.05;6.22;;;12.80;64.90;;;;;;5049166;28;20054;-57
2022/11/02 14:38:25;;;;;;;10.10;6.15;;;12.80;64.90;;;;;;5055847;28;20079;-54
2022/11/02 14:41:08;;;;;;;8.45;5.97;;;12.70;64.90;;;;;;5037466;28;20517;-59
2022/11/02 14:43:40;;;;;;;9.25;5.97;;;12.70;64.90;;;;;;5044282;28;20566;-56
2022/11/02 14:46:31;;;;;;;9.30;6.45;;;12.70;65.10;;;;;;5045533;28;20028;-58
2022/11/02 14:48:58;;;;;;;9.98;6.00;;;12.70;65.10;;;;;;5044929;28;20028;-57
2022/11/02 14:51:37;;;;;;;9.35;6.22;;;12.70;65.10;;;;;;5047482;28;21101;-58
2022/11/02 14:54:21;;;;;;;9.77;6.40;;;12.70;65.20;;;;;;5049131;28;20029;-57
2022/11/02 14:57:03;;;;;;;10.35;6.43;;;12.60;65.00;;;;;;5048455;28;20046;-58
2022/11/02 14:59:43;;;;;;;10.32;6.50;;;12.60;65.10;;;;;;5045222;28;20462;-55
2022/11/02 15:02:28;;;;;;;9.52;6.50;;;12.60;65.00;;;;;;5039732;28;20043;-55
2022/11/02 15:04:57;;;;;;;9.38;6.43;;;12.60;65.00;;;;;;5044312;28;20146;-57
2022/11/02 15:07:33;;;;;;;9.25;6.45;;;12.50;64.80;;;;;;5058692;28;20032;-57
2022/11/02 15:10:15;;;;;;;8.68;6.15;;;12.50;64.60;;;;;;5050916;28;20032;-56
2022/11/02 15:12:44;;;;;;;11.85;7.25;;;12.50;64.60;;;;;;5051481;28;20098;-56
2022/11/02 15:15:37;;;;;;;10.10;7.80;;;12.50;64.60;;;;;;5045113;28;20039;-57
2022/11/02 15:18:20;;;;;;;10.80;7.53;;;12.40;64.30;;;;;;5050095;28;20411;-58
2022/11/02 15:21:08;;;;;;;10.95;6.57;;;12.40;64.20;;;;;;5054127;28;20029;-56
2022/11/02 15:23:43;;;;;;;9.50;6.75;;;12.40;64.20;;;;;;5046367;28;20029;-56
2022/11/02 15:26:15;;;;;;;9.73;7.05;;;12.40;64.10;;;;;;5042640;28;20122;-58
2022/11/02 15:28:44;;;;;;;12.38;8.60;;;12.30;64.00;;;;;;5043941;28;20119;-57
2022/11/02 15:31:19;;;;;;;13.52;7.55;;;12.30;64.10;;;;;;5046106;28;20510;-56